Time;durP1;ratioP1;P1;durP2;ratioP2;P2;SDS_P1;SDS_P2;PMS_P1;PMS_P2;Temp;Humidity;BMP_temperature;BMP_pressure;BME280_temperature;BME280_humidity;BME280_pressure;Samples;Min_cycle;Max_cycle;Signal;HPM_P1;HPM_P2
2024/01/30 00:00:21;;;;;;;9.47;7.67;;;;;;;;;;4987917;28;20277;-84
2024/01/30 00:02:47;;;;;;;10.33;8.47;;;;;;;;;;4986731;28;20779;-83
2024/01/30 00:05:15;;;;;;;11.40;8.70;;;;;;;;;;4995304;28;20217;-83
2024/01/30 00:07:40;;;;;;;9.07;8.10;;;;;;;;;;5002449;28;20781;-81
2024/01/30 00:10:06;;;;;;;10.33;8.60;;;;;;;;;;4980347;28;20223;-83
2024/01/30 00:12:34;;;;;;;10.63;8.10;;;;;;;;;;4977413;28;20657;-83
2024/01/30 00:15:00;;;;;;;11.27;8.13;;;;;;;;;;5000723;28;20228;-83
2024/01/30 00:17:26;;;;;;;8.37;7.50;;;;;;;;;;4987073;28;20300;-81
2024/01/30 00:19:51;;;;;;;10.73;8.27;;;;;;;;;;4998537;28;20244;-82
2024/01/30 00:22:17;;;;;;;11.10;8.97;;;;;;;;;;4995867;28;20240;-82
2024/01/30 00:24:43;;;;;;;9.83;7.63;;;;;;;;;;5003644;28;20232;-84
2024/01/30 00:27:08;;;;;;;9.10;7.63;;;;;;;;;;5002230;28;20221;-83
2024/01/30 00:29:34;;;;;;;11.23;8.20;;;;;;;;;;4980720;28;20228;-82
2024/01/30 00:31:59;;;;;;;9.03;7.60;;;;;;;;;;4996894;28;20232;-84
2024/01/30 00:34:25;;;;;;;9.07;7.10;;;;;;;;;;4983662;28;20295;-83
2024/01/30 00:36:51;;;;;;;8.57;5.80;;;;;;;;;;4983734;28;20308;-82
2024/01/30 00:39:20;;;;;;;8.63;6.40;;;;;;;;;;4990921;28;20252;-83
2024/01/30 00:41:46;;;;;;;7.33;6.63;;;;;;;;;;4995016;28;20217;-81
2024/01/30 00:44:11;;;;;;;9.10;7.20;;;;;;;;;;4996817;28;20595;-83
2024/01/30 00:46:37;;;;;;;7.83;6.80;;;;;;;;;;4979868;28;20216;-83
2024/01/30 00:49:04;;;;;;;8.30;7.23;;;;;;;;;;5005837;28;20216;-83
2024/01/30 00:51:30;;;;;;;9.00;6.57;;;;;;;;;;5001052;28;20222;-82
2024/01/30 00:53:58;;;;;;;7.63;6.60;;;;;;;;;;4994274;28;20213;-84
2024/01/30 00:56:26;;;;;;;7.90;6.43;;;;;;;;;;4977888;28;20220;-83
2024/01/30 00:58:51;;;;;;;8.60;7.07;;;;;;;;;;4950057;28;20236;-82
2024/01/30 01:01:17;;;;;;;8.03;7.20;;;;;;;;;;4966047;28;20235;-82
2024/01/30 01:03:50;;;;;;;9.47;6.97;;;;;;;;;;4977335;28;20968;-83
2024/01/30 01:06:15;;;;;;;8.00;7.17;;;;;;;;;;5004518;28;20298;-82
2024/01/30 01:08:41;;;;;;;7.80;7.00;;;;;;;;;;4977461;28;20589;-82
2024/01/30 01:11:11;;;;;;;8.10;7.10;;;;;;;;;;4980223;28;20271;-81
2024/01/30 01:13:37;;;;;;;8.90;7.57;;;;;;;;;;4998418;28;20263;-81
2024/01/30 01:16:03;;;;;;;8.50;7.10;;;;;;;;;;4999112;28;20227;-84
2024/01/30 01:18:29;;;;;;;7.87;7.07;;;;;;;;;;4982941;28;20229;-82
2024/01/30 01:20:57;;;;;;;9.10;8.17;;;;;;;;;;5009671;28;20236;-83
2024/01/30 01:23:22;;;;;;;11.07;8.20;;;;;;;;;;4994772;28;20650;-82
2024/01/30 01:25:53;;;;;;;9.00;8.07;;;;;;;;;;4973537;28;20227;-82
2024/01/30 01:28:18;;;;;;;8.30;7.07;;;;;;;;;;4994087;28;20695;-82
2024/01/30 01:30:46;;;;;;;10.47;8.03;;;;;;;;;;5012081;28;20216;-82
2024/01/30 01:33:14;;;;;;;10.67;7.70;;;;;;;;;;5021738;28;20294;-82
2024/01/30 01:35:42;;;;;;;8.57;7.53;;;;;;;;;;4980078;28;20255;-82
2024/01/30 01:38:07;;;;;;;9.10;7.80;;;;;;;;;;4988816;28;20209;-83
2024/01/30 01:40:33;;;;;;;8.07;7.20;;;;;;;;;;4971391;28;20267;-83
2024/01/30 01:42:58;;;;;;;8.43;7.43;;;;;;;;;;4983992;28;20234;-84
2024/01/30 01:45:26;;;;;;;9.27;7.13;;;;;;;;;;5000688;28;20220;-83
2024/01/30 01:47:53;;;;;;;9.13;7.30;;;;;;;;;;4986182;28;20240;-81
2024/01/30 01:50:22;;;;;;;7.63;6.83;;;;;;;;;;4977857;28;20213;-84
2024/01/30 01:52:50;;;;;;;9.40;7.20;;;;;;;;;;5000204;28;20217;-83
2024/01/30 01:55:21;;;;;;;8.60;7.23;;;;;;;;;;4968893;28;20706;-84
2024/01/30 01:57:49;;;;;;;8.50;7.67;;;;;;;;;;4994463;28;20255;-84
2024/01/30 02:00:15;;;;;;;9.93;7.63;;;;;;;;;;4991331;28;20228;-82
2024/01/30 02:02:41;;;;;;;9.23;7.53;;;;;;;;;;5009611;28;20224;-81
2024/01/30 02:05:08;;;;;;;8.40;7.07;;;;;;;;;;4994984;28;20251;-84
2024/01/30 02:07:33;;;;;;;8.40;7.03;;;;;;;;;;4995032;28;20220;-83
2024/01/30 02:10:01;;;;;;;10.80;7.60;;;;;;;;;;4985462;28;20224;-83
2024/01/30 02:12:29;;;;;;;9.77;6.83;;;;;;;;;;4986440;28;20989;-82
2024/01/30 02:14:57;;;;;;;8.37;6.90;;;;;;;;;;4982088;28;20223;-84
2024/01/30 02:17:25;;;;;;;9.40;7.33;;;;;;;;;;5003821;28;20233;-84
2024/01/30 02:19:53;;;;;;;7.93;6.70;;;;;;;;;;4980108;28;20643;-84
2024/01/30 02:22:21;;;;;;;7.73;7.00;;;;;;;;;;4991548;28;20229;-84
2024/01/30 02:24:47;;;;;;;7.97;7.17;;;;;;;;;;4964973;28;20238;-84
2024/01/30 02:27:13;;;;;;;7.37;6.73;;;;;;;;;;4981743;28;20220;-83
2024/01/30 02:29:41;;;;;;;11.13;7.47;;;;;;;;;;5006309;28;20215;-84
2024/01/30 02:32:07;;;;;;;7.70;6.90;;;;;;;;;;4982850;28;20227;-80
2024/01/30 02:34:33;;;;;;;9.47;7.20;;;;;;;;;;4983570;28;20220;-83
2024/01/30 02:36:58;;;;;;;8.97;7.80;;;;;;;;;;4981850;28;20219;-83
2024/01/30 02:39:27;;;;;;;8.97;7.73;;;;;;;;;;4973880;28;20240;-80
2024/01/30 02:41:52;;;;;;;9.40;7.90;;;;;;;;;;4995982;28;20228;-81
2024/01/30 02:44:20;;;;;;;9.03;8.00;;;;;;;;;;4991481;28;20235;-81
2024/01/30 02:46:48;;;;;;;8.30;7.50;;;;;;;;;;5006763;28;20241;-83
2024/01/30 02:49:18;;;;;;;10.20;7.93;;;;;;;;;;4993139;28;20213;-81
2024/01/30 02:51:44;;;;;;;9.83;8.83;;;;;;;;;;4985738;28;20251;-81
2024/01/30 02:54:12;;;;;;;10.47;8.70;;;;;;;;;;4991667;28;20226;-83
2024/01/30 02:56:37;;;;;;;10.07;9.07;;;;;;;;;;5009352;28;20243;-82
2024/01/30 02:59:03;;;;;;;9.93;8.70;;;;;;;;;;4975520;28;20315;-83
2024/01/30 03:01:28;;;;;;;9.57;8.60;;;;;;;;;;4996065;28;20220;-84
2024/01/30 03:03:54;;;;;;;10.07;8.50;;;;;;;;;;4980540;28;20640;-83
2024/01/30 03:06:20;;;;;;;13.17;9.43;;;;;;;;;;4995079;28;20221;-84
2024/01/30 03:08:45;;;;;;;11.57;8.87;;;;;;;;;;4972457;28;20235;-84
2024/01/30 03:11:11;;;;;;;10.77;8.53;;;;;;;;;;5000718;28;20227;-83
2024/01/30 03:13:36;;;;;;;11.13;9.53;;;;;;;;;;4975490;28;20327;-84
2024/01/30 03:16:04;;;;;;;11.80;9.67;;;;;;;;;;4999562;28;20227;-83
2024/01/30 03:18:32;;;;;;;12.03;9.90;;;;;;;;;;4999980;28;20215;-83
2024/01/30 03:20:58;;;;;;;10.30;9.20;;;;;;;;;;4986495;28;20856;-83
2024/01/30 03:23:23;;;;;;;11.47;9.40;;;;;;;;;;4977774;28;20704;-85
2024/01/30 03:25:51;;;;;;;10.67;9.07;;;;;;;;;;4977819;28;20826;-83
2024/01/30 03:28:22;;;;;;;11.97;8.90;;;;;;;;;;4990633;28;20924;-83
2024/01/30 03:30:48;;;;;;;9.70;8.70;;;;;;;;;;4978292;28;20285;-84
2024/01/30 03:33:13;;;;;;;9.27;8.37;;;;;;;;;;4997142;28;20969;-84
2024/01/30 03:35:39;;;;;;;11.47;9.87;;;;;;;;;;5012176;28;20225;-84
2024/01/30 03:38:06;;;;;;;13.73;10.73;;;;;;;;;;4980141;28;20883;-83
2024/01/30 03:40:34;;;;;;;15.33;12.87;;;;;;;;;;4988379;28;20236;-84
2024/01/30 03:43:00;;;;;;;11.60;10.40;;;;;;;;;;4979615;28;20226;-83
2024/01/30 03:45:25;;;;;;;11.77;9.87;;;;;;;;;;4974735;28;20217;-83
2024/01/30 03:47:54;;;;;;;12.13;10.17;;;;;;;;;;4964088;28;20221;-84
2024/01/30 03:50:24;;;;;;;12.50;9.60;;;;;;;;;;4979171;28;20755;-83
2024/01/30 03:52:50;;;;;;;10.63;9.50;;;;;;;;;;4982183;28;20245;-83
2024/01/30 03:55:15;;;;;;;11.10;9.83;;;;;;;;;;4994453;28;20262;-85
2024/01/30 03:57:41;;;;;;;11.70;10.33;;;;;;;;;;4991848;28;20713;-84
2024/01/30 04:03:53;;;;;;;10.33;9.33;;;;;;;;;;5029058;28;20234;-84
2024/01/30 04:06:19;;;;;;;10.17;8.50;;;;;;;;;;4968727;28;20217;-82
2024/01/30 04:08:46;;;;;;;9.87;8.87;;;;;;;;;;4985060;28;20309;-82
2024/01/30 04:11:15;;;;;;;13.00;10.73;;;;;;;;;;5012901;28;20298;-82
2024/01/30 04:13:43;;;;;;;13.57;11.13;;;;;;;;;;4984493;28;20740;-83
2024/01/30 04:16:08;;;;;;;13.03;11.37;;;;;;;;;;4996567;28;20246;-83
2024/01/30 04:18:36;;;;;;;14.10;11.83;;;;;;;;;;4971780;28;20216;-81
2024/01/30 04:21:02;;;;;;;13.03;11.60;;;;;;;;;;4985019;28;20607;-81
2024/01/30 04:23:29;;;;;;;13.23;11.87;;;;;;;;;;5008116;28;20220;-81
2024/01/30 04:25:55;;;;;;;14.57;11.50;;;;;;;;;;4993780;28;20243;-82
2024/01/30 04:28:21;;;;;;;12.37;11.07;;;;;;;;;;4974142;28;20869;-81
2024/01/30 04:30:49;;;;;;;13.53;11.10;;;;;;;;;;4992318;28;20276;-81
2024/01/30 04:33:18;;;;;;;14.23;11.83;;;;;;;;;;5006988;28;20231;-80
2024/01/30 04:35:48;;;;;;;12.13;10.90;;;;;;;;;;5001963;28;20213;-82
2024/01/30 04:38:16;;;;;;;20.93;13.80;;;;;;;;;;4980119;28;20255;-83
2024/01/30 04:40:41;;;;;;;16.87;13.97;;;;;;;;;;4985361;28;20696;-83
2024/01/30 04:43:09;;;;;;;18.30;15.30;;;;;;;;;;4988631;28;20282;-82
2024/01/30 04:45:37;;;;;;;19.53;14.87;;;;;;;;;;5019500;28;20220;-83
2024/01/30 04:48:03;;;;;;;17.57;15.30;;;;;;;;;;4988582;28;20232;-82
2024/01/30 04:50:33;;;;;;;19.30;16.87;;;;;;;;;;4989701;28;20713;-84
2024/01/30 04:53:03;;;;;;;24.00;19.67;;;;;;;;;;4971920;28;20225;-79
2024/01/30 04:55:29;;;;;;;31.37;22.80;;;;;;;;;;4983464;28;20332;-79
2024/01/30 04:57:57;;;;;;;24.53;20.10;;;;;;;;;;5014034;28;20388;-78
2024/01/30 05:00:22;;;;;;;24.93;20.53;;;;;;;;;;4996379;28;20796;-79
2024/01/30 05:02:48;;;;;;;25.27;20.23;;;;;;;;;;4987439;28;20227;-78
2024/01/30 05:05:13;;;;;;;24.83;19.20;;;;;;;;;;5015931;28;20225;-79
2024/01/30 05:07:43;;;;;;;26.50;19.83;;;;;;;;;;4998180;28;20223;-78
2024/01/30 05:10:11;;;;;;;19.97;16.40;;;;;;;;;;4969565;28;20244;-79
2024/01/30 05:12:39;;;;;;;20.37;15.93;;;;;;;;;;5020593;28;20221;-79
2024/01/30 05:15:08;;;;;;;19.67;15.57;;;;;;;;;;4986101;28;20566;-79
2024/01/30 05:17:33;;;;;;;22.17;18.07;;;;;;;;;;4997674;28;20263;-77
2024/01/30 05:19:59;;;;;;;19.97;16.33;;;;;;;;;;4994320;28;20232;-78
2024/01/30 05:22:24;;;;;;;21.60;16.83;;;;;;;;;;4993504;28;20220;-79
2024/01/30 05:24:52;;;;;;;18.03;14.47;;;;;;;;;;4979396;28;20228;-78
2024/01/30 05:27:20;;;;;;;21.60;15.80;;;;;;;;;;5009049;28;20224;-79
2024/01/30 05:29:45;;;;;;;24.17;17.50;;;;;;;;;;5022025;28;20238;-78
2024/01/30 05:32:14;;;;;;;25.57;19.70;;;;;;;;;;4981728;28;20239;-79
2024/01/30 05:34:42;;;;;;;25.10;18.63;;;;;;;;;;4994846;28;20796;-79
2024/01/30 05:37:08;;;;;;;25.80;18.90;;;;;;;;;;4987206;28;20252;-78
2024/01/30 05:39:33;;;;;;;25.10;18.73;;;;;;;;;;4989043;28;20243;-78
2024/01/30 05:42:01;;;;;;;22.37;18.70;;;;;;;;;;4977518;28;20223;-77
2024/01/30 05:44:29;;;;;;;22.73;20.00;;;;;;;;;;4985224;28;20319;-79
2024/01/30 05:46:54;;;;;;;26.60;22.23;;;;;;;;;;4976779;28;20286;-79
2024/01/30 05:49:20;;;;;;;23.30;20.17;;;;;;;;;;5019696;28;20221;-78
2024/01/30 05:51:45;;;;;;;26.47;19.87;;;;;;;;;;4980851;28;20226;-79
2024/01/30 05:54:11;;;;;;;26.50;21.73;;;;;;;;;;5007929;28;20247;-79
2024/01/30 05:56:36;;;;;;;24.10;21.33;;;;;;;;;;5003643;28;20283;-78
2024/01/30 05:59:04;;;;;;;26.83;21.23;;;;;;;;;;5009902;28;20319;-77
2024/01/30 06:01:30;;;;;;;24.43;21.57;;;;;;;;;;4994560;28;20232;-78
2024/01/30 06:03:55;;;;;;;24.97;21.67;;;;;;;;;;5004081;28;20232;-77
2024/01/30 06:06:21;;;;;;;26.90;21.90;;;;;;;;;;5010560;28;20302;-78
2024/01/30 06:08:48;;;;;;;25.20;21.30;;;;;;;;;;5011439;28;20656;-78
2024/01/30 06:11:14;;;;;;;24.73;21.10;;;;;;;;;;4977172;28;20610;-78
2024/01/30 06:13:44;;;;;;;30.23;23.23;;;;;;;;;;5004130;28;20228;-79
2024/01/30 06:16:13;;;;;;;29.87;22.97;;;;;;;;;;4987255;28;20877;-78
2024/01/30 06:18:38;;;;;;;26.77;22.43;;;;;;;;;;4999287;28;20226;-78
2024/01/30 06:21:06;;;;;;;28.17;22.47;;;;;;;;;;4991800;28;20252;-78
2024/01/30 06:23:32;;;;;;;28.77;23.83;;;;;;;;;;4987648;28;20323;-77
2024/01/30 06:25:57;;;;;;;27.10;21.60;;;;;;;;;;4995028;28;20224;-78
2024/01/30 06:28:23;;;;;;;22.77;20.30;;;;;;;;;;5005459;28;20244;-79
2024/01/30 06:30:53;;;;;;;26.00;21.13;;;;;;;;;;5005262;28;20741;-79
2024/01/30 06:33:19;;;;;;;26.07;20.97;;;;;;;;;;4988076;28;20231;-79
2024/01/30 06:35:45;;;;;;;23.50;20.97;;;;;;;;;;5001490;28;20224;-78
2024/01/30 06:38:18;;;;;;;31.17;22.50;;;;;;;;;;4990872;28;20246;-78
2024/01/30 06:40:43;;;;;;;27.53;21.67;;;;;;;;;;4976841;28;20267;-78
2024/01/30 06:43:09;;;;;;;29.33;23.63;;;;;;;;;;4990875;28;20231;-78
2024/01/30 06:45:35;;;;;;;30.17;22.93;;;;;;;;;;4977761;28;20224;-78
2024/01/30 06:48:01;;;;;;;28.00;23.03;;;;;;;;;;4984640;28;20219;-78
2024/01/30 06:50:26;;;;;;;26.90;22.87;;;;;;;;;;4972575;28;20256;-79
2024/01/30 06:52:52;;;;;;;30.27;23.90;;;;;;;;;;4964163;28;20219;-79
2024/01/30 06:55:18;;;;;;;29.00;23.07;;;;;;;;;;4989920;28;20704;-79
2024/01/30 06:57:43;;;;;;;30.97;23.30;;;;;;;;;;4994278;28;20216;-79
2024/01/30 07:00:12;;;;;;;26.17;22.67;;;;;;;;;;4992444;28;20320;-80
2024/01/30 07:02:37;;;;;;;25.67;21.07;;;;;;;;;;4983729;28;20270;-79
2024/01/30 07:05:05;;;;;;;29.60;24.17;;;;;;;;;;4975482;28;20359;-79
2024/01/30 07:07:33;;;;;;;29.00;22.83;;;;;;;;;;4999973;28;20216;-79
2024/01/30 07:10:01;;;;;;;28.37;23.00;;;;;;;;;;4974909;28;20311;-79
2024/01/30 07:12:26;;;;;;;27.40;21.73;;;;;;;;;;5001741;28;20769;-79
2024/01/30 07:14:52;;;;;;;28.83;22.43;;;;;;;;;;4968153;28;20216;-78
2024/01/30 07:17:20;;;;;;;25.40;21.67;;;;;;;;;;4982943;28;20224;-79
2024/01/30 07:19:45;;;;;;;26.27;21.93;;;;;;;;;;5007654;28;20742;-78
2024/01/30 07:22:11;;;;;;;27.90;22.43;;;;;;;;;;4974839;28;20224;-79
2024/01/30 07:24:36;;;;;;;27.30;20.80;;;;;;;;;;4988149;28;20228;-78
2024/01/30 07:27:04;;;;;;;25.10;20.80;;;;;;;;;;4984914;28;20212;-78
2024/01/30 07:29:30;;;;;;;23.93;20.97;;;;;;;;;;4978817;28;20959;-78
2024/01/30 07:31:55;;;;;;;24.57;19.77;;;;;;;;;;4976166;28;20244;-78
2024/01/30 07:34:21;;;;;;;25.07;20.20;;;;;;;;;;4986752;28;20240;-79
2024/01/30 07:36:47;;;;;;;21.43;19.13;;;;;;;;;;4987301;28;20491;-78
2024/01/30 07:39:12;;;;;;;24.03;19.50;;;;;;;;;;4990016;28;20235;-78
2024/01/30 07:41:38;;;;;;;22.57;19.73;;;;;;;;;;4994076;28;20227;-78
2024/01/30 07:44:03;;;;;;;25.57;22.77;;;;;;;;;;4992223;28;20232;-78
2024/01/30 07:46:29;;;;;;;27.30;24.20;;;;;;;;;;4982772;28;20228;-79
2024/01/30 07:49:00;;;;;;;28.00;24.27;;;;;;;;;;5008226;28;20217;-78
2024/01/30 07:51:25;;;;;;;27.77;23.00;;;;;;;;;;4986497;28;20228;-79
2024/01/30 07:53:53;;;;;;;29.03;22.47;;;;;;;;;;4970882;28;20248;-78
2024/01/30 07:56:18;;;;;;;28.73;23.57;;;;;;;;;;4978146;28;20274;-78
2024/01/30 07:58:44;;;;;;;32.17;24.97;;;;;;;;;;5013315;28;20223;-78
2024/01/30 08:01:10;;;;;;;31.17;24.83;;;;;;;;;;4990414;28;20579;-77
2024/01/30 08:03:36;;;;;;;30.23;25.00;;;;;;;;;;5009680;28;20232;-78
2024/01/30 08:06:03;;;;;;;29.10;24.27;;;;;;;;;;4988300;28;20589;-78
2024/01/30 08:08:30;;;;;;;32.30;25.90;;;;;;;;;;4985725;28;20225;-77
2024/01/30 08:10:56;;;;;;;26.63;22.80;;;;;;;;;;5000612;28;20661;-79
2024/01/30 08:13:22;;;;;;;25.27;22.10;;;;;;;;;;4993622;28;20305;-78
2024/01/30 08:15:47;;;;;;;24.27;21.67;;;;;;;;;;5038336;28;20235;-78
2024/01/30 08:18:13;;;;;;;22.20;19.90;;;;;;;;;;5021481;28;20226;-78
2024/01/30 08:20:43;;;;;;;22.87;19.40;;;;;;;;;;5010013;28;20597;-78
2024/01/30 08:23:11;;;;;;;21.10;18.60;;;;;;;;;;4974492;28;20232;-78
2024/01/30 08:25:36;;;;;;;24.20;21.20;;;;;;;;;;4998675;28;20303;-78
2024/01/30 08:28:02;;;;;;;23.73;18.70;;;;;;;;;;5000086;28;20292;-78
2024/01/30 08:30:27;;;;;;;24.03;21.00;;;;;;;;;;5009166;28;21607;-78
2024/01/30 08:32:53;;;;;;;19.33;16.93;;;;;;;;;;4985709;28;20228;-78
2024/01/30 08:35:20;;;;;;;20.47;18.17;;;;;;;;;;4986792;28;20778;-78
2024/01/30 08:37:46;;;;;;;21.93;19.17;;;;;;;;;;5008927;28;20216;-78
2024/01/30 08:40:16;;;;;;;22.90;18.97;;;;;;;;;;4996418;28;20220;-78
2024/01/30 08:42:44;;;;;;;26.80;23.17;;;;;;;;;;4993244;28;20248;-78
2024/01/30 08:45:12;;;;;;;20.23;17.47;;;;;;;;;;4990702;28;20224;-77
2024/01/30 08:47:43;;;;;;;25.03;22.30;;;;;;;;;;5001789;28;20224;-78
2024/01/30 08:50:11;;;;;;;27.13;22.63;;;;;;;;;;4983234;28;20224;-78
2024/01/30 08:52:36;;;;;;;34.53;30.17;;;;;;;;;;4994674;28;20232;-78
2024/01/30 08:55:02;;;;;;;37.10;30.37;;;;;;;;;;4975940;28;20229;-78
2024/01/30 08:57:28;;;;;;;31.83;28.20;;;;;;;;;;4997706;28;20228;-78
2024/01/30 08:59:54;;;;;;;30.73;26.93;;;;;;;;;;5003208;28;20900;-78
2024/01/30 09:02:20;;;;;;;30.57;25.23;;;;;;;;;;4992000;28;20234;-78
2024/01/30 09:04:49;;;;;;;28.60;25.50;;;;;;;;;;5003866;28;20223;-78
2024/01/30 09:07:14;;;;;;;29.40;26.40;;;;;;;;;;5003486;28;20578;-78
2024/01/30 09:09:42;;;;;;;30.83;24.77;;;;;;;;;;5019561;28;20221;-78
2024/01/30 09:12:15;;;;;;;26.37;23.33;;;;;;;;;;5012080;28;20212;-78
2024/01/30 09:14:41;;;;;;;25.03;22.33;;;;;;;;;;5009660;28;20695;-78
2024/01/30 09:17:06;;;;;;;24.73;22.17;;;;;;;;;;5005850;28;20308;-78
2024/01/30 09:19:32;;;;;;;24.83;20.27;;;;;;;;;;4968651;28;20343;-77
2024/01/30 09:22:00;;;;;;;20.00;17.63;;;;;;;;;;4969334;28;20673;-77
2024/01/30 09:24:26;;;;;;;20.33;18.23;;;;;;;;;;4975019;28;20309;-78
2024/01/30 09:26:51;;;;;;;19.87;17.67;;;;;;;;;;4976993;28;20559;-78
2024/01/30 09:29:17;;;;;;;18.87;16.87;;;;;;;;;;4977223;28;20219;-79
2024/01/30 09:31:45;;;;;;;21.10;17.87;;;;;;;;;;4972492;28;20685;-77
2024/01/30 09:34:13;;;;;;;17.80;15.87;;;;;;;;;;5017803;28;20221;-78
2024/01/30 09:36:41;;;;;;;18.80;15.97;;;;;;;;;;4987454;28;20228;-79
2024/01/30 09:39:07;;;;;;;18.30;15.50;;;;;;;;;;4978721;28;20738;-78
2024/01/30 09:41:34;;;;;;;16.43;14.73;;;;;;;;;;5002041;28;20287;-78
2024/01/30 09:43:59;;;;;;;16.60;14.73;;;;;;;;;;4980856;28;20224;-79
2024/01/30 09:46:27;;;;;;;15.90;14.20;;;;;;;;;;5000592;28;20250;-79
2024/01/30 09:48:55;;;;;;;15.53;13.70;;;;;;;;;;4998644;28;20215;-79
2024/01/30 09:51:25;;;;;;;15.53;13.57;;;;;;;;;;4989981;28;20212;-79
2024/01/30 09:53:51;;;;;;;14.90;13.23;;;;;;;;;;4992318;28;21062;-79
2024/01/30 09:56:17;;;;;;;14.30;12.90;;;;;;;;;;4979760;28;20228;-78
2024/01/30 09:58:45;;;;;;;13.83;12.40;;;;;;;;;;5007420;28;20217;-78
2024/01/30 10:01:13;;;;;;;15.00;11.60;;;;;;;;;;4999550;28;20608;-78
2024/01/30 10:03:43;;;;;;;12.93;11.67;;;;;;;;;;4977439;28;20469;-78
2024/01/30 10:06:09;;;;;;;12.90;11.40;;;;;;;;;;5008437;28;20223;-78
2024/01/30 10:08:34;;;;;;;12.70;10.87;;;;;;;;;;4987467;28;20220;-78
2024/01/30 10:11:03;;;;;;;13.00;11.60;;;;;;;;;;4969943;28;20223;-78
2024/01/30 10:13:33;;;;;;;12.70;11.50;;;;;;;;;;5003643;28;20307;-77
2024/01/30 10:15:59;;;;;;;12.47;11.23;;;;;;;;;;5020405;28;20227;-78
2024/01/30 10:18:24;;;;;;;14.27;12.10;;;;;;;;;;4992007;28;20221;-79
2024/01/30 10:20:50;;;;;;;14.80;12.50;;;;;;;;;;5003449;28;20287;-78
2024/01/30 10:23:19;;;;;;;13.87;12.40;;;;;;;;;;4980546;28;20220;-78
2024/01/30 10:25:45;;;;;;;15.33;11.63;;;;;;;;;;4990934;28;20235;-78
2024/01/30 10:28:12;;;;;;;13.33;10.90;;;;;;;;;;5003755;28;20211;-78
2024/01/30 10:30:38;;;;;;;15.23;10.77;;;;;;;;;;4993581;28;20237;-78
2024/01/30 10:33:04;;;;;;;13.47;10.27;;;;;;;;;;4990705;28;20223;-78
2024/01/30 10:35:29;;;;;;;14.50;10.63;;;;;;;;;;5006088;28;20220;-78
2024/01/30 10:37:56;;;;;;;11.83;10.17;;;;;;;;;;4983174;28;20221;-77
2024/01/30 10:40:24;;;;;;;11.80;9.63;;;;;;;;;;4986003;28;20220;-78
2024/01/30 10:42:52;;;;;;;11.77;9.10;;;;;;;;;;4993776;28;20634;-78
2024/01/30 10:45:18;;;;;;;9.70;8.67;;;;;;;;;;4974335;28;20220;-78
2024/01/30 10:47:56;;;;;;;9.37;8.43;;;;;;;;;;4974144;28;20718;-78
2024/01/30 10:50:26;;;;;;;10.67;8.47;;;;;;;;;;4982474;28;20220;-79
2024/01/30 10:52:52;;;;;;;9.13;7.70;;;;;;;;;;4974676;28;20315;-79
2024/01/30 10:55:21;;;;;;;9.70;7.83;;;;;;;;;;4981309;28;20216;-78
2024/01/30 10:57:46;;;;;;;8.97;7.97;;;;;;;;;;4987360;28;20767;-78
2024/01/30 11:00:15;;;;;;;9.13;8.03;;;;;;;;;;5001523;28;20225;-78
2024/01/30 11:02:48;;;;;;;9.10;7.90;;;;;;;;;;4970348;28;20231;-78
2024/01/30 11:05:17;;;;;;;8.67;7.07;;;;;;;;;;4975667;28;20228;-78
2024/01/30 11:07:43;;;;;;;8.23;7.23;;;;;;;;;;5001179;28;20216;-78
2024/01/30 11:10:14;;;;;;;10.63;7.50;;;;;;;;;;4987343;28;20250;-77
2024/01/30 11:12:44;;;;;;;7.93;6.77;;;;;;;;;;4992877;28;20933;-77
2024/01/30 11:15:10;;;;;;;7.10;6.43;;;;;;;;;;4982912;28;20223;-77
2024/01/30 11:17:50;;;;;;;7.37;6.57;;;;;;;;;;5004679;28;20235;-78
2024/01/30 11:20:27;;;;;;;7.97;6.93;;;;;;;;;;4999128;28;20749;-77
2024/01/30 11:22:54;;;;;;;8.03;7.20;;;;;;;;;;4984398;28;20240;-77
2024/01/30 11:25:22;;;;;;;8.87;7.30;;;;;;;;;;4981368;28;20235;-78
2024/01/30 11:27:54;;;;;;;8.03;6.73;;;;;;;;;;4984237;28;20240;-77
2024/01/30 11:30:23;;;;;;;10.70;7.50;;;;;;;;;;5009345;28;20220;-79
2024/01/30 11:33:04;;;;;;;8.10;6.83;;;;;;;;;;4991496;28;20761;-79
2024/01/30 11:35:33;;;;;;;8.17;6.63;;;;;;;;;;4991587;28;20396;-79
2024/01/30 11:38:02;;;;;;;8.37;6.90;;;;;;;;;;4990719;28;20223;-78
2024/01/30 11:40:33;;;;;;;8.87;7.10;;;;;;;;;;4985144;28;20229;-78
2024/01/30 11:43:02;;;;;;;8.13;6.73;;;;;;;;;;5004358;28;20954;-79
2024/01/30 11:45:28;;;;;;;8.30;7.20;;;;;;;;;;4988321;28;20256;-79
2024/01/30 11:47:56;;;;;;;9.70;7.10;;;;;;;;;;4977301;28;20694;-79
2024/01/30 11:50:22;;;;;;;8.17;6.83;;;;;;;;;;4991640;28;20216;-79
2024/01/30 11:52:48;;;;;;;8.23;6.40;;;;;;;;;;4977555;28;20228;-78
2024/01/30 11:55:14;;;;;;;12.30;7.27;;;;;;;;;;5004639;28;20236;-78
2024/01/30 11:57:44;;;;;;;10.13;6.93;;;;;;;;;;4986273;28;20735;-78
2024/01/30 12:00:16;;;;;;;9.07;7.20;;;;;;;;;;5010195;28;20235;-78
2024/01/30 12:02:41;;;;;;;13.93;7.47;;;;;;;;;;5013834;28;20251;-79
2024/01/30 12:05:09;;;;;;;8.37;6.80;;;;;;;;;;4994731;28;20278;-79
2024/01/30 12:07:37;;;;;;;10.10;7.10;;;;;;;;;;5006473;28;20236;-78
2024/01/30 12:10:07;;;;;;;10.17;7.20;;;;;;;;;;5005875;28;20217;-78
2024/01/30 12:12:35;;;;;;;8.90;6.90;;;;;;;;;;4969168;28;20249;-77
2024/01/30 12:15:00;;;;;;;12.53;7.73;;;;;;;;;;4981133;28;20671;-77
2024/01/30 12:17:30;;;;;;;10.27;7.50;;;;;;;;;;5001445;28;20233;-77
2024/01/30 12:20:08;;;;;;;9.50;7.20;;;;;;;;;;4978047;28;20232;-77
2024/01/30 12:22:38;;;;;;;9.63;7.00;;;;;;;;;;4982438;28;20228;-77
2024/01/30 12:25:05;;;;;;;7.77;6.50;;;;;;;;;;5008519;28;20235;-78
2024/01/30 12:27:31;;;;;;;8.80;6.87;;;;;;;;;;4968265;28;20411;-77
2024/01/30 12:29:59;;;;;;;11.77;10.07;;;;;;;;;;4990695;28;20220;-77
2024/01/30 12:32:27;;;;;;;8.13;6.23;;;;;;;;;;4988777;28;20220;-78
2024/01/30 12:34:58;;;;;;;7.20;6.03;;;;;;;;;;4991787;28;20319;-77
2024/01/30 12:37:24;;;;;;;6.77;5.50;;;;;;;;;;4974056;28;20603;-77
2024/01/30 12:39:53;;;;;;;10.57;6.07;;;;;;;;;;4995632;28;20256;-77
2024/01/30 12:42:20;;;;;;;7.40;6.33;;;;;;;;;;5011288;28;20220;-78
2024/01/30 12:44:45;;;;;;;7.00;5.87;;;;;;;;;;5003795;28;20232;-77
2024/01/30 12:47:11;;;;;;;10.13;7.90;;;;;;;;;;4996308;28;20212;-79
2024/01/30 12:49:39;;;;;;;8.47;7.57;;;;;;;;;;4998094;28;20223;-77
2024/01/30 12:52:07;;;;;;;10.03;7.57;;;;;;;;;;5005106;28;20260;-77
2024/01/30 12:54:33;;;;;;;8.27;7.33;;;;;;;;;;4988384;28;20689;-76
2024/01/30 12:56:59;;;;;;;8.90;7.83;;;;;;;;;;5004904;28;20223;-77
2024/01/30 12:59:24;;;;;;;8.90;7.97;;;;;;;;;;5002808;28;20727;-78
2024/01/30 13:01:50;;;;;;;7.80;7.10;;;;;;;;;;4990470;28;20350;-78
2024/01/30 13:04:16;;;;;;;7.43;6.33;;;;;;;;;;5000596;28;20216;-78
2024/01/30 13:06:44;;;;;;;8.47;7.57;;;;;;;;;;4994925;28;20529;-77
2024/01/30 13:09:09;;;;;;;8.07;6.90;;;;;;;;;;4983901;28;20739;-77
2024/01/30 13:11:35;;;;;;;8.23;7.20;;;;;;;;;;4987586;28;20239;-76
2024/01/30 13:14:03;;;;;;;10.23;7.63;;;;;;;;;;5004502;28;20256;-77
2024/01/30 13:16:29;;;;;;;11.77;7.77;;;;;;;;;;5021635;28;20227;-77
2024/01/30 13:18:55;;;;;;;9.83;7.60;;;;;;;;;;5003479;28;20220;-77
2024/01/30 13:21:23;;;;;;;11.20;8.50;;;;;;;;;;4994152;28;20236;-78
2024/01/30 13:23:52;;;;;;;10.20;8.27;;;;;;;;;;5003556;28;20641;-77
2024/01/30 13:26:18;;;;;;;10.47;8.83;;;;;;;;;;5001634;28;20311;-77
2024/01/30 13:28:46;;;;;;;8.23;7.53;;;;;;;;;;4995584;28;20769;-76
2024/01/30 13:31:12;;;;;;;10.17;8.27;;;;;;;;;;4998045;28;20727;-77
2024/01/30 13:33:41;;;;;;;9.87;7.47;;;;;;;;;;5002685;28;20688;-78
2024/01/30 13:36:10;;;;;;;10.57;8.50;;;;;;;;;;4989263;28;20212;-77
2024/01/30 13:38:35;;;;;;;8.80;7.70;;;;;;;;;;4994798;28;20212;-77
2024/01/30 13:41:03;;;;;;;10.00;8.03;;;;;;;;;;4995736;28;20250;-77
2024/01/30 13:43:29;;;;;;;8.97;7.90;;;;;;;;;;5005671;28;20602;-78
2024/01/30 13:45:57;;;;;;;8.90;7.53;;;;;;;;;;5006127;28;20217;-78
2024/01/30 13:48:22;;;;;;;9.43;7.37;;;;;;;;;;4978117;28;21471;-77
2024/01/30 13:50:51;;;;;;;8.17;7.37;;;;;;;;;;5014241;28;20274;-77
2024/01/30 13:53:19;;;;;;;10.00;7.53;;;;;;;;;;5001593;28;20288;-78
2024/01/30 13:55:44;;;;;;;9.97;7.30;;;;;;;;;;4991731;28;20231;-77
2024/01/30 13:58:12;;;;;;;9.10;7.37;;;;;;;;;;4988874;28;20633;-77
2024/01/30 14:00:42;;;;;;;8.27;7.57;;;;;;;;;;5010068;28;20270;-78
2024/01/30 14:03:07;;;;;;;8.90;8.00;;;;;;;;;;5007665;28;20247;-78
2024/01/30 14:05:35;;;;;;;8.37;7.40;;;;;;;;;;5006377;28;20315;-77
2024/01/30 14:08:01;;;;;;;9.97;7.63;;;;;;;;;;4997305;28;20223;-78
2024/01/30 14:10:26;;;;;;;13.20;9.73;;;;;;;;;;4988729;28;20560;-79
2024/01/30 14:12:52;;;;;;;11.87;9.50;;;;;;;;;;4968514;28;20241;-79
2024/01/30 14:15:19;;;;;;;27.10;16.53;;;;;;;;;;4992089;28;20235;-78
2024/01/30 14:17:48;;;;;;;9.90;8.67;;;;;;;;;;5005451;28;20337;-76
2024/01/30 14:20:17;;;;;;;9.00;7.17;;;;;;;;;;4971431;28;20304;-77
2024/01/30 14:22:45;;;;;;;7.97;7.17;;;;;;;;;;4978197;28;20233;-77
2024/01/30 14:25:12;;;;;;;8.20;6.83;;;;;;;;;;4964262;28;20211;-78
2024/01/30 14:27:37;;;;;;;9.87;6.93;;;;;;;;;;4989327;28;20223;-77
2024/01/30 14:30:03;;;;;;;7.67;6.50;;;;;;;;;;4978323;28;20220;-78